createdAt,value
2023-03-23T00:02:01.688Z,0.52
2023-03-23T00:06:01.675Z,0.51
2023-03-23T00:10:01.710Z,0.51
2023-03-23T00:14:01.664Z,0.50
2023-03-23T00:18:01.690Z,0.51
2023-03-23T00:22:01.665Z,0.51
2023-03-23T00:26:01.665Z,0.51
2023-03-23T00:30:01.682Z,0.51
2023-03-23T00:34:01.679Z,0.51
2023-03-23T00:38:01.692Z,0.51
2023-03-23T00:42:01.723Z,0.51
2023-03-23T00:46:01.717Z,0.51
2023-03-23T00:50:01.742Z,0.51
2023-03-23T00:54:01.807Z,0.52
2023-03-23T00:58:01.774Z,0.51
2023-03-23T01:02:01.776Z,0.52
2023-03-23T01:06:01.791Z,0.51
2023-03-23T01:10:01.837Z,0.51
2023-03-23T01:14:01.846Z,0.52
2023-03-23T01:18:01.882Z,0.51
2023-03-23T01:22:01.919Z,0.51
2023-03-23T01:26:01.952Z,0.51
2023-03-23T01:30:01.997Z,0.51
2023-03-23T01:34:02.066Z,0.51
2023-03-23T01:38:02.083Z,0.51
2023-03-23T01:42:02.282Z,0.52
2023-03-23T01:46:02.176Z,0.51
2023-03-23T01:50:02.256Z,0.52
2023-03-23T01:54:02.319Z,0.50
2023-03-23T01:58:02.372Z,0.50
2023-03-23T02:02:02.384Z,0.51
2023-03-23T02:06:02.502Z,0.51
2023-03-23T02:10:02.505Z,0.51
2023-03-23T02:14:02.562Z,0.52
2023-03-23T02:18:02.630Z,0.52
2023-03-23T02:22:02.665Z,0.51
2023-03-23T02:26:02.727Z,0.52
2023-03-23T02:30:02.812Z,0.51
2023-03-23T02:34:02.892Z,0.51
2023-03-23T02:38:02.931Z,0.50
2023-03-23T02:42:02.966Z,0.51
2023-03-23T02:46:03.843Z,0.51
2023-03-23T02:50:02.780Z,0.52
2023-03-23T02:54:02.711Z,0.51
2023-03-23T02:58:02.590Z,0.51
2023-03-23T03:02:02.587Z,0.53
2023-03-23T03:06:02.683Z,0.51
2023-03-23T03:10:02.733Z,0.51
2023-03-23T03:14:02.837Z,0.52
2023-03-23T03:18:02.859Z,0.52
2023-03-23T03:22:02.964Z,0.52
2023-03-23T03:26:03.022Z,0.50
2023-03-23T03:30:03.077Z,0.51
2023-03-23T03:34:03.156Z,0.50
2023-03-23T03:38:03.217Z,0.51
2023-03-23T03:42:03.272Z,0.50
2023-03-23T03:46:03.316Z,0.51
2023-03-23T03:50:03.405Z,0.52
2023-03-23T03:54:03.412Z,0.52
2023-03-23T03:58:03.527Z,0.51
2023-03-23T04:02:03.572Z,0.51
2023-03-23T04:06:03.646Z,0.51
2023-03-23T04:10:03.712Z,0.51
2023-03-23T04:14:03.764Z,0.51
2023-03-23T04:18:03.836Z,0.52
2023-03-23T04:22:03.894Z,0.51
2023-03-23T04:26:03.969Z,0.52
2023-03-23T04:30:04.070Z,0.51
2023-03-23T04:34:04.145Z,0.52
2023-03-23T04:38:04.194Z,0.52
2023-03-23T04:42:04.277Z,0.50
2023-03-23T04:46:04.401Z,0.51
2023-03-23T04:50:04.491Z,0.50
2023-03-23T04:54:04.547Z,0.51
2023-03-23T04:58:04.633Z,0.51
2023-03-23T05:02:14.365Z,0.50
2023-03-23T05:06:05.679Z,0.51
2023-03-23T05:10:04.621Z,0.51
2023-03-23T05:14:04.488Z,0.51
2023-03-23T05:18:04.541Z,0.51
2023-03-23T05:22:04.676Z,0.51
2023-03-23T05:26:04.749Z,0.51
2023-03-23T05:30:04.838Z,0.52
2023-03-23T05:34:04.948Z,0.51
2023-03-23T05:38:05.015Z,0.51
2023-03-23T05:42:05.096Z,0.52
2023-03-23T05:46:05.173Z,0.51
2023-03-23T05:50:05.254Z,0.51
2023-03-23T05:54:05.343Z,0.53
2023-03-23T05:58:05.395Z,0.54
2023-03-23T06:02:05.491Z,0.53
2023-03-23T06:06:05.554Z,0.52
2023-03-23T06:10:05.658Z,0.53
2023-03-23T06:14:05.677Z,0.52
2023-03-23T06:18:05.735Z,0.53
2023-03-23T06:22:05.813Z,0.53
2023-03-23T06:26:05.861Z,0.53
2023-03-23T06:30:05.961Z,0.53
2023-03-23T06:34:06.052Z,0.53
2023-03-23T06:38:06.363Z,0.53
2023-03-23T06:42:06.155Z,0.57
2023-03-23T06:46:06.388Z,0.64
2023-03-23T06:50:06.373Z,0.64
2023-03-23T06:54:06.361Z,0.72
2023-03-23T06:58:06.137Z,0.85
2023-03-23T07:02:06.405Z,0.93
2023-03-23T07:06:07.029Z,1.08
2023-03-23T07:10:06.383Z,1.25
2023-03-23T07:14:06.319Z,1.48
2023-03-23T07:18:06.469Z,1.65
2023-03-23T07:22:06.629Z,2.10
2023-03-23T07:26:06.683Z,2.06
2023-03-23T07:30:06.798Z,2.30
2023-03-23T07:34:06.934Z,2.49
2023-03-23T07:38:07.066Z,2.81
2023-03-23T07:42:07.379Z,3.30
2023-03-23T07:46:07.393Z,3.44
2023-03-23T07:50:07.352Z,3.54
2023-03-23T07:54:07.384Z,1.31
2023-03-23T07:58:07.883Z,1.23
2023-03-23T08:02:07.459Z,1.46
2023-03-23T08:06:07.927Z,1.61
2023-03-23T08:10:07.572Z,1.74
2023-03-23T08:14:07.909Z,2.02
2023-03-23T08:18:07.335Z,2.33
2023-03-23T08:22:07.239Z,2.47
2023-03-23T08:26:07.129Z,2.72
2023-03-23T08:30:07.412Z,3.07
2023-03-23T08:34:06.888Z,3.25
2023-03-23T08:38:06.915Z,3.43
2023-03-23T08:42:06.937Z,3.89
2023-03-23T08:46:06.935Z,4.05
2023-03-23T08:50:06.321Z,3.79
2023-03-23T08:54:06.403Z,3.73
2023-03-23T08:58:06.454Z,3.46
2023-03-23T09:02:06.419Z,3.42
2023-03-23T09:06:06.406Z,3.39
2023-03-23T09:10:06.444Z,3.29
2023-03-23T09:14:06.612Z,3.26
2023-03-23T09:18:06.925Z,2.99
2023-03-23T09:22:06.360Z,2.82
2023-03-23T09:26:06.212Z,2.79
2023-03-23T09:30:06.097Z,2.76
2023-03-23T09:34:06.059Z,2.60
2023-03-23T09:38:06.441Z,2.46
2023-03-23T09:42:05.888Z,2.54
2023-03-23T09:46:05.943Z,2.71
2023-03-23T09:50:05.947Z,2.93
2023-03-23T09:54:06.450Z,2.05
2023-03-23T09:58:06.488Z,1.37
2023-03-23T10:02:06.077Z,1.82
2023-03-23T10:06:06.030Z,1.95
2023-03-23T10:10:05.962Z,1.90
2023-03-23T10:14:05.867Z,1.96
2023-03-23T10:18:05.783Z,2.10
2023-03-23T10:22:05.682Z,2.37
2023-03-23T10:26:05.609Z,2.63
2023-03-23T10:30:05.545Z,2.91
2023-03-23T10:34:05.434Z,3.16
2023-03-23T10:38:05.310Z,3.38
2023-03-23T10:42:05.447Z,3.53
2023-03-23T10:46:05.740Z,2.49
2023-03-23T10:50:05.456Z,2.82
2023-03-23T10:54:05.462Z,2.90
2023-03-23T10:58:04.947Z,2.77
2023-03-23T11:02:04.884Z,2.80
2023-03-23T11:06:05.028Z,2.60
2023-03-23T11:10:04.683Z,2.42
2023-03-23T11:14:04.622Z,2.38
2023-03-23T11:18:04.989Z,2.21
2023-03-23T11:22:04.446Z,2.12
2023-03-23T11:26:04.476Z,2.10
2023-03-23T11:30:04.223Z,2.13
2023-03-23T11:34:06.230Z,2.13
2023-03-23T11:38:04.504Z,2.08
2023-03-23T11:42:09.569Z,1.97
2023-03-23T11:46:04.899Z,1.26
2023-03-23T11:50:03.769Z,1.29
2023-03-23T11:54:03.729Z,1.47
2023-03-23T11:58:03.603Z,1.06
2023-03-23T12:02:16.770Z,1.01
2023-03-23T12:06:04.499Z,1.02
2023-03-23T12:10:03.993Z,0.74
2023-03-23T12:14:03.608Z,0.79
2023-03-23T12:18:03.744Z,0.78
2023-03-23T12:22:03.820Z,0.51
2023-03-23T12:26:04.000Z,0.57
2023-03-23T12:30:04.540Z,0.46
2023-03-23T12:34:04.483Z,0.60
2023-03-23T12:38:04.438Z,0.76
2023-03-23T12:42:04.545Z,0.51
2023-03-23T12:46:05.010Z,0.72
2023-03-23T12:50:04.888Z,0.81
2023-03-23T12:54:05.516Z,0.70
2023-03-23T12:58:04.916Z,0.65
2023-03-23T13:02:05.015Z,0.67
2023-03-23T13:06:04.761Z,0.61
2023-03-23T13:10:05.390Z,0.67
2023-03-23T13:14:04.612Z,0.77
2023-03-23T13:18:05.029Z,0.64
2023-03-23T13:22:04.530Z,0.77
2023-03-23T13:26:04.559Z,0.57
2023-03-23T13:30:04.506Z,0.50
2023-03-23T13:34:04.576Z,0.69
2023-03-23T13:38:04.734Z,0.68
2023-03-23T13:42:04.832Z,0.59
2023-03-23T13:46:05.001Z,0.82
2023-03-23T13:50:05.166Z,0.76
2023-03-23T13:54:05.268Z,0.92
2023-03-23T13:58:05.430Z,1.05
2023-03-23T14:02:05.526Z,1.11
2023-03-23T14:06:05.675Z,1.13
2023-03-23T14:10:05.783Z,1.09
2023-03-23T14:14:06.065Z,0.86
2023-03-23T14:18:06.556Z,1.07
2023-03-23T14:22:06.236Z,1.13
2023-03-23T14:30:06.343Z,0.45
2023-03-23T14:34:06.311Z,0.80
2023-03-23T14:38:06.212Z,2.71
2023-03-23T14:46:06.194Z,3.22
2023-03-23T14:54:06.263Z,3.52
2023-03-23T14:58:06.226Z,3.88
2023-03-23T15:02:06.619Z,3.24
2023-03-23T15:06:06.108Z,3.46
2023-03-23T15:10:06.021Z,3.45
2023-03-23T15:14:06.598Z,3.72
2023-03-23T15:18:06.435Z,3.19
2023-03-23T15:22:06.587Z,3.18
2023-03-23T15:26:06.751Z,3.35
2023-03-23T15:30:06.927Z,3.23
2023-03-23T15:34:07.097Z,2.92
2023-03-23T15:38:07.227Z,2.92
2023-03-23T15:42:07.385Z,2.89
2023-03-23T15:46:07.550Z,2.56
2023-03-23T15:50:07.690Z,2.58
2023-03-23T15:54:12.463Z,2.46
2023-03-23T15:58:08.808Z,2.56
2023-03-23T16:02:07.767Z,2.50
2023-03-23T16:06:07.740Z,2.52
2023-03-23T16:10:07.949Z,2.50
2023-03-23T16:14:08.107Z,2.38
2023-03-23T16:18:08.134Z,2.32
2023-03-23T16:22:07.989Z,2.32
2023-03-23T16:26:07.935Z,2.34
2023-03-23T16:30:07.832Z,2.30
2023-03-23T16:34:07.769Z,2.35
2023-03-23T16:38:09.209Z,2.17
2023-03-23T16:42:07.616Z,2.30
2023-03-23T16:46:07.567Z,2.24
2023-03-23T16:50:07.473Z,2.21
2023-03-23T16:54:07.638Z,2.22
2023-03-23T16:58:16.551Z,2.17
2023-03-23T17:02:08.499Z,2.20
2023-03-23T17:06:07.674Z,2.17
2023-03-23T17:10:07.494Z,2.13
2023-03-23T17:14:07.429Z,2.05
2023-03-23T17:18:07.384Z,2.02
2023-03-23T17:22:07.287Z,2.01
2023-03-23T17:26:07.265Z,2.01
2023-03-23T17:30:07.167Z,1.93
2023-03-23T17:34:07.113Z,1.91
2023-03-23T17:38:07.026Z,1.89
2023-03-23T17:42:06.956Z,1.81
2023-03-23T17:46:06.918Z,1.85
2023-03-23T17:50:11.496Z,1.81
2023-03-23T17:54:07.756Z,1.79
2023-03-23T17:58:06.723Z,1.77
2023-03-23T18:02:06.801Z,1.76
2023-03-23T18:06:06.924Z,1.71
2023-03-23T18:10:07.126Z,1.71
2023-03-23T18:14:07.334Z,1.72
2023-03-23T18:18:07.544Z,1.67
2023-03-23T18:22:07.521Z,1.66
2023-03-23T18:26:07.439Z,1.63
2023-03-23T18:30:07.377Z,1.61
2023-03-23T18:34:07.359Z,1.57
2023-03-23T18:38:07.267Z,1.59
2023-03-23T18:42:07.195Z,1.51
2023-03-23T18:46:07.219Z,1.53
2023-03-23T18:50:07.149Z,1.49
2023-03-23T18:54:07.012Z,1.51
2023-03-23T18:58:07.115Z,1.48
2023-03-23T19:02:08.222Z,1.46
2023-03-23T19:06:07.309Z,1.47
2023-03-23T19:10:07.234Z,1.46
2023-03-23T19:14:07.204Z,1.46
2023-03-23T19:18:07.140Z,1.46
2023-03-23T19:22:07.083Z,1.46
2023-03-23T19:26:07.045Z,1.42
2023-03-23T19:30:06.978Z,1.46
2023-03-23T19:34:06.925Z,1.46
2023-03-23T19:38:06.874Z,1.47
2023-03-23T19:42:07.198Z,1.46
2023-03-23T19:46:06.932Z,1.45
2023-03-23T19:50:07.016Z,1.44
2023-03-23T19:54:06.860Z,1.42
2023-03-23T19:58:06.786Z,1.40
2023-03-23T20:02:06.824Z,1.38
2023-03-23T20:06:07.162Z,1.34
2023-03-23T20:10:06.694Z,1.34
2023-03-23T20:14:06.973Z,1.33
2023-03-23T20:18:06.741Z,1.30
2023-03-23T20:22:06.640Z,1.31
2023-03-23T20:26:06.871Z,1.28
2023-03-23T20:30:06.959Z,1.27
2023-03-23T20:34:07.112Z,1.26
2023-03-23T20:38:07.207Z,1.26
2023-03-23T20:42:07.306Z,1.23
2023-03-23T20:46:07.470Z,1.23
2023-03-23T20:50:07.557Z,1.22
2023-03-23T20:54:07.672Z,1.21
2023-03-23T20:58:07.700Z,1.18
2023-03-23T21:02:07.751Z,1.16
2023-03-23T21:06:07.911Z,1.15
2023-03-23T21:10:08.094Z,1.14
2023-03-23T21:14:08.115Z,1.13
2023-03-23T21:18:08.235Z,1.12
2023-03-23T21:22:08.334Z,1.12
2023-03-23T21:26:08.328Z,1.10
2023-03-23T21:30:08.387Z,1.08
2023-03-23T21:34:08.508Z,1.11
2023-03-23T21:38:08.563Z,1.10
2023-03-23T21:42:08.664Z,1.06
2023-03-23T21:46:08.757Z,1.06
2023-03-23T21:50:08.795Z,1.05
2023-03-23T21:54:08.953Z,1.03
2023-03-23T21:58:09.001Z,1.02
2023-03-23T22:02:09.069Z,1.01
2023-03-23T22:06:09.206Z,1.01
2023-03-23T22:10:09.255Z,1.00
2023-03-23T22:14:09.331Z,1.00
2023-03-23T22:18:09.452Z,0.99
2023-03-23T22:22:09.465Z,0.97
2023-03-23T22:26:09.575Z,0.97
2023-03-23T22:30:09.627Z,0.94
2023-03-23T22:34:09.748Z,0.94
2023-03-23T22:38:09.773Z,0.92
2023-03-23T22:42:11.755Z,0.93
2023-03-23T22:46:09.892Z,0.92
2023-03-23T22:50:09.804Z,0.91
2023-03-23T22:54:09.723Z,0.89
2023-03-23T22:58:09.683Z,0.89
2023-03-23T23:02:09.594Z,0.87
2023-03-23T23:06:09.553Z,0.87
2023-03-23T23:10:09.501Z,0.86
2023-03-23T23:14:09.427Z,0.85
2023-03-23T23:18:09.361Z,0.86
2023-03-23T23:22:18.288Z,0.85
2023-03-23T23:26:10.235Z,0.84
2023-03-23T23:30:09.157Z,0.84
2023-03-23T23:34:09.104Z,0.82
2023-03-23T23:38:09.160Z,0.81
2023-03-23T23:42:09.184Z,0.82
2023-03-23T23:46:09.287Z,0.81
2023-03-23T23:50:09.416Z,0.81
2023-03-23T23:54:09.499Z,0.79
2023-03-23T23:58:09.588Z,0.77
